sensor_id;sensor_type;location;lat;lon;timestamp;pressure;altitude;pressure_sealevel;temperature;humidity
70571;BME280;58135;50.948;-1.458;2022-12-31T00:00:23;99625.86;;;8.50;48.10
70571;BME280;58135;50.948;-1.458;2022-12-31T00:01:24;99618.40;;;8.33;48.23
70571;BME280;58135;50.948;-1.458;2022-12-31T00:02:22;99625.40;;;8.13;48.17
70571;BME280;58135;50.948;-1.458;2022-12-31T00:03:23;99624.86;;;7.89;48.45
70571;BME280;58135;50.948;-1.458;2022-12-31T00:04:23;99626.40;;;7.78;48.53
70571;BME280;58135;50.948;-1.458;2022-12-31T00:05:23;99631.51;;;8.30;47.89
70571;BME280;58135;50.948;-1.458;2022-12-31T00:06:25;99625.89;;;8.40;47.86
70571;BME280;58135;50.948;-1.458;2022-12-31T00:07:23;99631.03;;;7.91;48.08
70571;BME280;58135;50.948;-1.458;2022-12-31T00:08:23;99620.07;;;7.97;47.80
70571;BME280;58135;50.948;-1.458;2022-12-31T00:09:24;99619.60;;;8.50;47.91
70571;BME280;58135;50.948;-1.458;2022-12-31T00:10:23;99617.73;;;8.27;47.86
70571;BME280;58135;50.948;-1.458;2022-12-31T00:11:25;99620.85;;;8.78;48.21
70571;BME280;58135;50.948;-1.458;2022-12-31T00:12:24;99622.10;;;8.84;48.24
70571;BME280;58135;50.948;-1.458;2022-12-31T00:13:24;99621.90;;;8.47;48.63
70571;BME280;58135;50.948;-1.458;2022-12-31T00:14:25;99618.08;;;9.53;47.67
70571;BME280;58135;50.948;-1.458;2022-12-31T00:15:25;99624.43;;;8.25;48.42
70571;BME280;58135;50.948;-1.458;2022-12-31T00:16:27;99627.57;;;8.35;47.67
70571;BME280;58135;50.948;-1.458;2022-12-31T00:17:25;99623.16;;;8.33;47.61
70571;BME280;58135;50.948;-1.458;2022-12-31T00:18:25;99619.53;;;8.91;46.79
70571;BME280;58135;50.948;-1.458;2022-12-31T00:19:25;99612.89;;;8.65;47.20
70571;BME280;58135;50.948;-1.458;2022-12-31T00:20:26;99609.04;;;9.08;46.98
70571;BME280;58135;50.948;-1.458;2022-12-31T00:21:27;99617.38;;;9.28;47.44
70571;BME280;58135;50.948;-1.458;2022-12-31T00:22:27;99618.41;;;7.88;48.25
70571;BME280;58135;50.948;-1.458;2022-12-31T00:23:26;99619.79;;;7.82;48.35
70571;BME280;58135;50.948;-1.458;2022-12-31T00:24:26;99619.07;;;8.28;48.33
70571;BME280;58135;50.948;-1.458;2022-12-31T00:25:27;99621.84;;;8.54;47.91
70571;BME280;58135;50.948;-1.458;2022-12-31T00:26:29;99620.67;;;8.41;47.69
70571;BME280;58135;50.948;-1.458;2022-12-31T00:27:29;99622.41;;;8.96;47.43
70571;BME280;58135;50.948;-1.458;2022-12-31T00:28:29;99623.96;;;8.50;47.25
70571;BME280;58135;50.948;-1.458;2022-12-31T00:29:27;99630.23;;;8.60;46.98
70571;BME280;58135;50.948;-1.458;2022-12-31T00:30:28;99625.92;;;9.28;47.20
70571;BME280;58135;50.948;-1.458;2022-12-31T00:31:30;99626.61;;;7.83;48.03
70571;BME280;58135;50.948;-1.458;2022-12-31T00:32:28;99623.16;;;7.56;47.80
70571;BME280;58135;50.948;-1.458;2022-12-31T00:33:28;99615.90;;;8.99;47.72
70571;BME280;58135;50.948;-1.458;2022-12-31T00:34:29;99609.82;;;8.43;47.04
70571;BME280;58135;50.948;-1.458;2022-12-31T00:35:29;99595.15;;;8.59;47.42
70571;BME280;58135;50.948;-1.458;2022-12-31T00:36:31;99583.88;;;8.52;47.67
70571;BME280;58135;50.948;-1.458;2022-12-31T00:37:30;99571.67;;;8.49;47.63
70571;BME280;58135;50.948;-1.458;2022-12-31T00:38:30;99569.55;;;8.14;48.20
70571;BME280;58135;50.948;-1.458;2022-12-31T00:39:30;99571.67;;;8.07;48.28
70571;BME280;58135;50.948;-1.458;2022-12-31T00:40:30;99573.40;;;7.95;48.51
70571;BME280;58135;50.948;-1.458;2022-12-31T00:41:31;99582.40;;;9.19;47.31
70571;BME280;58135;50.948;-1.458;2022-12-31T00:42:31;99586.77;;;8.86;47.78
70571;BME280;58135;50.948;-1.458;2022-12-31T00:43:31;99585.91;;;8.28;47.62
70571;BME280;58135;50.948;-1.458;2022-12-31T00:44:31;99594.94;;;7.97;48.48
70571;BME280;58135;50.948;-1.458;2022-12-31T00:45:32;99598.06;;;7.64;48.45
70571;BME280;58135;50.948;-1.458;2022-12-31T00:46:32;99600.53;;;8.70;48.40
70571;BME280;58135;50.948;-1.458;2022-12-31T00:47:32;99601.87;;;8.82;48.22
70571;BME280;58135;50.948;-1.458;2022-12-31T00:48:34;99609.76;;;8.98;48.01
70571;BME280;58135;50.948;-1.458;2022-12-31T00:49:33;99618.78;;;9.21;47.54
70571;BME280;58135;50.948;-1.458;2022-12-31T00:50:33;99630.61;;;8.15;47.74
70571;BME280;58135;50.948;-1.458;2022-12-31T00:51:34;99638.12;;;8.25;48.32
70571;BME280;58135;50.948;-1.458;2022-12-31T00:52:34;99656.37;;;8.58;48.64
70571;BME280;58135;50.948;-1.458;2022-12-31T00:53:34;99660.14;;;8.32;48.36
70571;BME280;58135;50.948;-1.458;2022-12-31T00:54:34;99664.78;;;7.75;48.54
70571;BME280;58135;50.948;-1.458;2022-12-31T00:55:34;99659.00;;;8.22;48.05
70571;BME280;58135;50.948;-1.458;2022-12-31T00:56:34;99654.42;;;9.08;48.00
70571;BME280;58135;50.948;-1.458;2022-12-31T00:57:34;99644.96;;;7.98;48.11
70571;BME280;58135;50.948;-1.458;2022-12-31T00:58:35;99640.62;;;7.87;48.43
70571;BME280;58135;50.948;-1.458;2022-12-31T00:59:35;99639.33;;;8.79;47.64
70571;BME280;58135;50.948;-1.458;2022-12-31T01:00:36;99635.54;;;8.65;47.79
70571;BME280;58135;50.948;-1.458;2022-12-31T01:01:37;99629.96;;;8.55;47.92
70571;BME280;58135;50.948;-1.458;2022-12-31T01:02:36;99627.15;;;8.76;47.49
70571;BME280;58135;50.948;-1.458;2022-12-31T01:03:36;99623.89;;;8.46;47.85
70571;BME280;58135;50.948;-1.458;2022-12-31T01:04:37;99620.05;;;8.32;48.03
70571;BME280;58135;50.948;-1.458;2022-12-31T01:05:36;99620.19;;;8.54;48.52
70571;BME280;58135;50.948;-1.458;2022-12-31T01:06:37;99620.40;;;8.31;47.66
70571;BME280;58135;50.948;-1.458;2022-12-31T01:07:37;99616.87;;;9.71;45.54
70571;BME280;58135;50.948;-1.458;2022-12-31T01:08:37;99618.03;;;8.44;46.99
70571;BME280;58135;50.948;-1.458;2022-12-31T01:09:37;99624.43;;;8.21;47.44
70571;BME280;58135;50.948;-1.458;2022-12-31T01:10:37;99621.68;;;9.03;47.48
70571;BME280;58135;50.948;-1.458;2022-12-31T01:11:38;99618.11;;;8.85;47.16
70571;BME280;58135;50.948;-1.458;2022-12-31T01:12:38;99615.30;;;8.14;47.56
70571;BME280;58135;50.948;-1.458;2022-12-31T01:13:37;99611.87;;;8.60;47.58
70571;BME280;58135;50.948;-1.458;2022-12-31T01:14:37;99611.07;;;7.64;48.30
70571;BME280;58135;50.948;-1.458;2022-12-31T01:15:38;99610.99;;;8.19;48.14
70571;BME280;58135;50.948;-1.458;2022-12-31T01:16:40;99607.66;;;8.33;47.91
70571;BME280;58135;50.948;-1.458;2022-12-31T01:17:38;99600.39;;;8.38;48.25
70571;BME280;58135;50.948;-1.458;2022-12-31T01:18:39;99599.94;;;7.84;47.98
70571;BME280;58135;50.948;-1.458;2022-12-31T01:19:39;99594.90;;;7.94;47.80
70571;BME280;58135;50.948;-1.458;2022-12-31T01:20:41;99589.28;;;8.46;47.02
70571;BME280;58135;50.948;-1.458;2022-12-31T01:21:40;99582.65;;;9.42;46.58
70571;BME280;58135;50.948;-1.458;2022-12-31T01:22:40;99584.64;;;8.13;46.99
70571;BME280;58135;50.948;-1.458;2022-12-31T01:23:39;99577.84;;;8.91;46.49
70571;BME280;58135;50.948;-1.458;2022-12-31T01:24:40;99574.44;;;8.17;46.68
70571;BME280;58135;50.948;-1.458;2022-12-31T01:25:40;99574.75;;;8.63;46.65
70571;BME280;58135;50.948;-1.458;2022-12-31T01:26:41;99570.95;;;7.98;47.13
70571;BME280;58135;50.948;-1.458;2022-12-31T01:27:41;99557.96;;;9.21;46.53
70571;BME280;58135;50.948;-1.458;2022-12-31T01:28:41;99560.41;;;8.00;46.89
70571;BME280;58135;50.948;-1.458;2022-12-31T01:29:41;99560.20;;;9.15;46.58
70571;BME280;58135;50.948;-1.458;2022-12-31T01:30:41;99563.25;;;8.59;47.46
70571;BME280;58135;50.948;-1.458;2022-12-31T01:31:41;99566.89;;;8.25;47.97
70571;BME280;58135;50.948;-1.458;2022-12-31T01:32:42;99564.85;;;7.92;48.04
70571;BME280;58135;50.948;-1.458;2022-12-31T01:33:42;99567.94;;;8.42;48.01
70571;BME280;58135;50.948;-1.458;2022-12-31T01:34:42;99560.35;;;8.30;47.71
70571;BME280;58135;50.948;-1.458;2022-12-31T01:35:42;99557.13;;;8.94;47.17
70571;BME280;58135;50.948;-1.458;2022-12-31T01:36:43;99556.90;;;7.92;47.38
70571;BME280;58135;50.948;-1.458;2022-12-31T01:37:43;99557.17;;;7.70;47.66
70571;BME280;58135;50.948;-1.458;2022-12-31T01:38:44;99554.05;;;7.65;47.89
70571;BME280;58135;50.948;-1.458;2022-12-31T01:39:43;99544.21;;;8.35;47.51
70571;BME280;58135;50.948;-1.458;2022-12-31T01:40:43;99545.58;;;7.90;47.48
70571;BME280;58135;50.948;-1.458;2022-12-31T01:41:45;99551.38;;;9.26;47.14
70571;BME280;58135;50.948;-1.458;2022-12-31T01:42:43;99557.60;;;8.02;47.40
70571;BME280;58135;50.948;-1.458;2022-12-31T01:43:47;99557.04;;;8.12;47.18
70571;BME280;58135;50.948;-1.458;2022-12-31T01:44:49;99551.39;;;8.16;47.06
70571;BME280;58135;50.948;-1.458;2022-12-31T01:45:45;99559.92;;;8.39;47.56
70571;BME280;58135;50.948;-1.458;2022-12-31T01:46:47;99558.11;;;8.25;47.10
70571;BME280;58135;50.948;-1.458;2022-12-31T01:47:46;99562.75;;;8.19;47.22
70571;BME280;58135;50.948;-1.458;2022-12-31T01:48:47;99565.63;;;8.15;47.36
70571;BME280;58135;50.948;-1.458;2022-12-31T01:49:48;99559.56;;;8.26;47.23
70571;BME280;58135;50.948;-1.458;2022-12-31T01:50:46;99560.01;;;8.38;46.97
70571;BME280;58135;50.948;-1.458;2022-12-31T01:51:49;99563.62;;;8.00;47.52
70571;BME280;58135;50.948;-1.458;2022-12-31T01:52:49;99567.54;;;8.30;47.21
70571;BME280;58135;50.948;-1.458;2022-12-31T01:53:46;99564.28;;;8.97;47.48
70571;BME280;58135;50.948;-1.458;2022-12-31T01:54:49;99564.89;;;8.11;47.42
70571;BME280;58135;50.948;-1.458;2022-12-31T01:55:51;99562.85;;;8.04;47.43
70571;BME280;58135;50.948;-1.458;2022-12-31T01:56:47;99566.96;;;8.47;47.61
70571;BME280;58135;50.948;-1.458;2022-12-31T01:57:49;99564.81;;;8.40;47.13
70571;BME280;58135;50.948;-1.458;2022-12-31T01:58:49;99563.34;;;8.40;47.20
70571;BME280;58135;50.948;-1.458;2022-12-31T01:59:48;99557.54;;;8.60;46.85
70571;BME280;58135;50.948;-1.458;2022-12-31T02:00:50;99561.53;;;8.61;46.85
70571;BME280;58135;50.948;-1.458;2022-12-31T02:01:49;99562.53;;;8.57;46.92
70571;BME280;58135;50.948;-1.458;2022-12-31T02:02:49;99570.51;;;8.32;47.41
70571;BME280;58135;50.948;-1.458;2022-12-31T02:03:49;99571.36;;;7.93;47.27
70571;BME280;58135;50.948;-1.458;2022-12-31T02:04:50;99569.51;;;8.58;47.02
70571;BME280;58135;50.948;-1.458;2022-12-31T02:05:53;99567.70;;;8.41;47.31
70571;BME280;58135;50.948;-1.458;2022-12-31T02:06:53;99569.95;;;8.77;47.00
70571;BME280;58135;50.948;-1.458;2022-12-31T02:07:51;99589.03;;;9.42;46.12
70571;BME280;58135;50.948;-1.458;2022-12-31T02:08:50;99596.10;;;9.32;46.97
70571;BME280;58135;50.948;-1.458;2022-12-31T02:09:51;99599.55;;;8.34;47.79
70571;BME280;58135;50.948;-1.458;2022-12-31T02:10:51;99607.14;;;8.72;47.96
70571;BME280;58135;50.948;-1.458;2022-12-31T02:11:51;99616.45;;;8.33;47.86
70571;BME280;58135;50.948;-1.458;2022-12-31T02:12:51;99616.01;;;8.50;47.75
70571;BME280;58135;50.948;-1.458;2022-12-31T02:13:54;99618.51;;;8.58;47.62
70571;BME280;58135;50.948;-1.458;2022-12-31T02:14:53;99610.35;;;8.66;47.62
70571;BME280;58135;50.948;-1.458;2022-12-31T02:15:57;99610.50;;;8.53;47.81
70571;BME280;58135;50.948;-1.458;2022-12-31T02:16:57;99610.63;;;8.73;47.74
70571;BME280;58135;50.948;-1.458;2022-12-31T02:17:58;99612.41;;;9.19;47.13
70571;BME280;58135;50.948;-1.458;2022-12-31T02:18:57;99617.79;;;8.70;47.70
70571;BME280;58135;50.948;-1.458;2022-12-31T02:20:15;99616.91;;;8.49;48.13
70571;BME280;58135;50.948;-1.458;2022-12-31T02:21:10;99620.71;;;8.63;47.94
70571;BME280;58135;50.948;-1.458;2022-12-31T02:21:59;99619.59;;;8.80;47.79
70571;BME280;58135;50.948;-1.458;2022-12-31T02:23:18;99620.35;;;8.61;48.18
70571;BME280;58135;50.948;-1.458;2022-12-31T02:24:06;99614.15;;;8.60;48.25
70571;BME280;58135;50.948;-1.458;2022-12-31T02:26:09;99608.98;;;8.21;48.12
70571;BME280;58135;50.948;-1.458;2022-12-31T02:26:58;99615.79;;;8.71;48.14
70571;BME280;58135;50.948;-1.458;2022-12-31T02:28:06;99612.46;;;8.87;47.28
70571;BME280;58135;50.948;-1.458;2022-12-31T02:29:13;99609.69;;;9.41;47.24
70571;BME280;58135;50.948;-1.458;2022-12-31T02:30:04;99610.47;;;9.32;47.56
70571;BME280;58135;50.948;-1.458;2022-12-31T02:31:02;99595.98;;;9.36;47.38
70571;BME280;58135;50.948;-1.458;2022-12-31T02:31:59;99594.37;;;10.24;46.47
70571;BME280;58135;50.948;-1.458;2022-12-31T02:33:05;99606.14;;;9.31;47.61
70571;BME280;58135;50.948;-1.458;2022-12-31T02:34:00;99591.61;;;10.09;46.20
70571;BME280;58135;50.948;-1.458;2022-12-31T02:35:00;99590.47;;;9.49;46.64
70571;BME280;58135;50.948;-1.458;2022-12-31T02:35:58;99597.32;;;9.22;47.69
70571;BME280;58135;50.948;-1.458;2022-12-31T02:36:57;99594.51;;;9.47;47.67
70571;BME280;58135;50.948;-1.458;2022-12-31T02:38:00;99597.01;;;9.34;47.78
70571;BME280;58135;50.948;-1.458;2022-12-31T02:38:57;99587.44;;;9.32;47.25
70571;BME280;58135;50.948;-1.458;2022-12-31T02:39:57;99584.49;;;9.59;47.65
70571;BME280;58135;50.948;-1.458;2022-12-31T02:40:58;99584.35;;;9.45;47.84
70571;BME280;58135;50.948;-1.458;2022-12-31T02:41:59;99584.42;;;9.40;47.85
70571;BME280;58135;50.948;-1.458;2022-12-31T02:42:57;99587.98;;;9.34;48.12
70571;BME280;58135;50.948;-1.458;2022-12-31T02:43:57;99586.92;;;9.16;47.74
70571;BME280;58135;50.948;-1.458;2022-12-31T02:44:57;99582.63;;;9.45;47.99
70571;BME280;58135;50.948;-1.458;2022-12-31T02:46:07;99588.25;;;9.02;48.05
70571;BME280;58135;50.948;-1.458;2022-12-31T02:47:09;99579.75;;;9.22;47.79
70571;BME280;58135;50.948;-1.458;2022-12-31T02:48:11;99581.82;;;8.84;48.36
70571;BME280;58135;50.948;-1.458;2022-12-31T02:49:03;99575.70;;;9.12;48.60
70571;BME280;58135;50.948;-1.458;2022-12-31T02:50:09;99577.08;;;9.12;48.03
70571;BME280;58135;50.948;-1.458;2022-12-31T02:51:08;99576.74;;;9.22;48.02
70571;BME280;58135;50.948;-1.458;2022-12-31T02:52:04;99571.28;;;9.90;47.72
70571;BME280;58135;50.948;-1.458;2022-12-31T02:53:10;99575.24;;;9.97;47.58
70571;BME280;58135;50.948;-1.458;2022-12-31T02:54:12;99579.19;;;9.57;48.23
70571;BME280;58135;50.948;-1.458;2022-12-31T02:55:08;99561.86;;;9.82;47.96
70571;BME280;58135;50.948;-1.458;2022-12-31T02:56:03;99568.05;;;10.02;47.57
70571;BME280;58135;50.948;-1.458;2022-12-31T02:57:05;99562.34;;;9.54;48.35
70571;BME280;58135;50.948;-1.458;2022-12-31T02:58:06;99555.86;;;10.76;46.94
70571;BME280;58135;50.948;-1.458;2022-12-31T02:59:02;99560.82;;;10.61;47.17
70571;BME280;58135;50.948;-1.458;2022-12-31T03:00:02;99554.07;;;9.70;48.38
70571;BME280;58135;50.948;-1.458;2022-12-31T03:01:00;99554.02;;;9.97;48.15
70571;BME280;58135;50.948;-1.458;2022-12-31T03:02:03;99550.83;;;9.61;47.96
70571;BME280;58135;50.948;-1.458;2022-12-31T03:03:01;99547.90;;;10.22;47.73
70571;BME280;58135;50.948;-1.458;2022-12-31T03:04:00;99545.60;;;9.86;48.36
70571;BME280;58135;50.948;-1.458;2022-12-31T03:05:02;99549.01;;;9.65;48.07
70571;BME280;58135;50.948;-1.458;2022-12-31T03:06:02;99545.74;;;9.38;48.45
70571;BME280;58135;50.948;-1.458;2022-12-31T03:07:02;99538.67;;;10.34;47.80
70571;BME280;58135;50.948;-1.458;2022-12-31T03:08:01;99538.34;;;9.90;48.62
70571;BME280;58135;50.948;-1.458;2022-12-31T03:09:02;99545.00;;;9.76;48.80
70571;BME280;58135;50.948;-1.458;2022-12-31T03:10:02;99540.61;;;9.51;48.50
70571;BME280;58135;50.948;-1.458;2022-12-31T03:11:01;99540.07;;;9.61;48.62
70571;BME280;58135;50.948;-1.458;2022-12-31T03:12:03;99529.10;;;9.90;48.20
70571;BME280;58135;50.948;-1.458;2022-12-31T03:13:02;99535.88;;;9.66;48.49
70571;BME280;58135;50.948;-1.458;2022-12-31T03:14:02;99539.87;;;8.90;49.61
70571;BME280;58135;50.948;-1.458;2022-12-31T03:15:03;99536.40;;;9.22;49.23
70571;BME280;58135;50.948;-1.458;2022-12-31T03:16:02;99535.12;;;9.34;49.74
70571;BME280;58135;50.948;-1.458;2022-12-31T03:17:02;99525.58;;;9.84;48.64
70571;BME280;58135;50.948;-1.458;2022-12-31T03:18:05;99530.33;;;10.28;48.53
70571;BME280;58135;50.948;-1.458;2022-12-31T03:19:04;99533.96;;;9.49;49.07
70571;BME280;58135;50.948;-1.458;2022-12-31T03:20:04;99534.15;;;9.49;49.13
70571;BME280;58135;50.948;-1.458;2022-12-31T03:21:10;99527.79;;;9.73;48.36
70571;BME280;58135;50.948;-1.458;2022-12-31T03:22:04;99538.06;;;10.25;48.06
70571;BME280;58135;50.948;-1.458;2022-12-31T03:23:06;99536.90;;;10.11;48.93
70571;BME280;58135;50.948;-1.458;2022-12-31T03:24:04;99523.24;;;10.44;48.70
70571;BME280;58135;50.948;-1.458;2022-12-31T03:25:06;99529.81;;;10.17;48.66
70571;BME280;58135;50.948;-1.458;2022-12-31T03:26:07;99529.76;;;9.95;48.92
70571;BME280;58135;50.948;-1.458;2022-12-31T03:27:05;99517.11;;;9.74;48.77
70571;BME280;58135;50.948;-1.458;2022-12-31T03:28:07;99520.05;;;9.90;49.17
70571;BME280;58135;50.948;-1.458;2022-12-31T03:29:04;99515.80;;;9.99;49.25
70571;BME280;58135;50.948;-1.458;2022-12-31T03:30:06;99514.67;;;9.63;49.74
70571;BME280;58135;50.948;-1.458;2022-12-31T03:31:05;99525.61;;;9.50;49.93
70571;BME280;58135;50.948;-1.458;2022-12-31T03:32:05;99519.19;;;9.35;49.65
70571;BME280;58135;50.948;-1.458;2022-12-31T03:33:06;99517.38;;;10.61;49.09
70571;BME280;58135;50.948;-1.458;2022-12-31T03:34:05;99522.84;;;10.10;49.01
70571;BME280;58135;50.948;-1.458;2022-12-31T03:35:07;99517.13;;;9.86;49.53
70571;BME280;58135;50.948;-1.458;2022-12-31T03:36:08;99521.71;;;9.77;49.31
70571;BME280;58135;50.948;-1.458;2022-12-31T03:37:05;99520.08;;;9.25;49.96
70571;BME280;58135;50.948;-1.458;2022-12-31T03:38:06;99516.39;;;9.95;49.02
70571;BME280;58135;50.948;-1.458;2022-12-31T03:39:06;99513.38;;;9.49;49.55
70571;BME280;58135;50.948;-1.458;2022-12-31T03:40:08;99512.21;;;10.19;49.29
70571;BME280;58135;50.948;-1.458;2022-12-31T03:41:09;99520.09;;;10.14;49.33
70571;BME280;58135;50.948;-1.458;2022-12-31T03:42:06;99511.54;;;10.89;48.88
70571;BME280;58135;50.948;-1.458;2022-12-31T03:43:06;99506.63;;;10.63;48.65
70571;BME280;58135;50.948;-1.458;2022-12-31T03:44:07;99518.50;;;11.07;48.80
70571;BME280;58135;50.948;-1.458;2022-12-31T03:45:09;99507.76;;;10.99;48.38
70571;BME280;58135;50.948;-1.458;2022-12-31T03:46:08;99488.59;;;10.42;48.45
70571;BME280;58135;50.948;-1.458;2022-12-31T03:47:07;99508.23;;;10.90;49.26
70571;BME280;58135;50.948;-1.458;2022-12-31T03:48:09;99500.43;;;10.70;49.70
70571;BME280;58135;50.948;-1.458;2022-12-31T03:49:07;99501.06;;;9.95;49.85
70571;BME280;58135;50.948;-1.458;2022-12-31T03:50:10;99507.85;;;9.68;49.85
70571;BME280;58135;50.948;-1.458;2022-12-31T03:51:08;99498.47;;;10.02;49.48
70571;BME280;58135;50.948;-1.458;2022-12-31T03:52:08;99506.78;;;10.61;49.26
70571;BME280;58135;50.948;-1.458;2022-12-31T03:53:08;99507.41;;;11.45;48.50
70571;BME280;58135;50.948;-1.458;2022-12-31T03:54:08;99508.72;;;11.25;49.14
70571;BME280;58135;50.948;-1.458;2022-12-31T03:55:10;99510.08;;;10.71;49.40
70571;BME280;58135;50.948;-1.458;2022-12-31T03:56:08;99509.77;;;10.53;49.66
70571;BME280;58135;50.948;-1.458;2022-12-31T03:57:09;99507.33;;;11.08;49.11
70571;BME280;58135;50.948;-1.458;2022-12-31T03:58:09;99517.85;;;10.41;49.22
70571;BME280;58135;50.948;-1.458;2022-12-31T03:59:09;99504.57;;;10.27;49.53
70571;BME280;58135;50.948;-1.458;2022-12-31T04:00:13;99512.37;;;10.14;49.66
70571;BME280;58135;50.948;-1.458;2022-12-31T04:01:09;99505.85;;;10.42;49.23
70571;BME280;58135;50.948;-1.458;2022-12-31T04:02:09;99512.09;;;11.36;47.22
70571;BME280;58135;50.948;-1.458;2022-12-31T04:03:09;99521.71;;;11.26;48.05
70571;BME280;58135;50.948;-1.458;2022-12-31T04:04:09;99510.73;;;11.10;47.63
70571;BME280;58135;50.948;-1.458;2022-12-31T04:05:10;99514.18;;;11.70;47.95
70571;BME280;58135;50.948;-1.458;2022-12-31T04:06:10;99515.29;;;10.79;48.05
70571;BME280;58135;50.948;-1.458;2022-12-31T04:07:13;99525.16;;;11.13;48.32
70571;BME280;58135;50.948;-1.458;2022-12-31T04:08:10;99526.72;;;10.60;48.39
70571;BME280;58135;50.948;-1.458;2022-12-31T04:09:11;99527.08;;;11.23;48.82
70571;BME280;58135;50.948;-1.458;2022-12-31T04:10:13;99528.30;;;10.65;49.17
70571;BME280;58135;50.948;-1.458;2022-12-31T04:11:11;99519.20;;;10.75;48.29
70571;BME280;58135;50.948;-1.458;2022-12-31T04:12:11;99528.43;;;10.69;48.26
70571;BME280;58135;50.948;-1.458;2022-12-31T04:13:11;99531.94;;;11.20;47.48
70571;BME280;58135;50.948;-1.458;2022-12-31T04:14:11;99537.28;;;11.02;48.59
70571;BME280;58135;50.948;-1.458;2022-12-31T04:15:16;99527.80;;;11.53;47.73
70571;BME280;58135;50.948;-1.458;2022-12-31T04:16:12;99533.80;;;11.36;48.19
70571;BME280;58135;50.948;-1.458;2022-12-31T04:17:12;99530.78;;;11.12;48.41
70571;BME280;58135;50.948;-1.458;2022-12-31T04:18:12;99532.65;;;11.67;47.47
70571;BME280;58135;50.948;-1.458;2022-12-31T04:19:12;99533.21;;;11.58;47.77
70571;BME280;58135;50.948;-1.458;2022-12-31T04:20:13;99525.48;;;10.78;48.27
70571;BME280;58135;50.948;-1.458;2022-12-31T04:21:12;99529.74;;;11.20;48.45
70571;BME280;58135;50.948;-1.458;2022-12-31T04:22:13;99531.66;;;10.79;49.13
70571;BME280;58135;50.948;-1.458;2022-12-31T04:23:14;99541.86;;;11.49;48.10
70571;BME280;58135;50.948;-1.458;2022-12-31T04:24:14;99529.10;;;11.51;47.84
70571;BME280;58135;50.948;-1.458;2022-12-31T04:25:14;99537.67;;;11.10;47.73
70571;BME280;58135;50.948;-1.458;2022-12-31T04:26:15;99545.07;;;11.28;48.41
70571;BME280;58135;50.948;-1.458;2022-12-31T04:27:15;99540.54;;;11.17;48.57
70571;BME280;58135;50.948;-1.458;2022-12-31T04:28:15;99542.22;;;10.62;48.82
70571;BME280;58135;50.948;-1.458;2022-12-31T04:29:15;99550.91;;;10.51;48.50
70571;BME280;58135;50.948;-1.458;2022-12-31T04:30:15;99553.62;;;11.47;48.26
70571;BME280;58135;50.948;-1.458;2022-12-31T04:32:15;99547.48;;;10.40;48.60
70571;BME280;58135;50.948;-1.458;2022-12-31T04:33:15;99558.63;;;10.61;48.44
70571;BME280;58135;50.948;-1.458;2022-12-31T04:34:16;99544.90;;;11.08;48.36
70571;BME280;58135;50.948;-1.458;2022-12-31T04:35:16;99553.27;;;10.69;47.53
70571;BME280;58135;50.948;-1.458;2022-12-31T04:36:18;99559.73;;;11.37;47.18
70571;BME280;58135;50.948;-1.458;2022-12-31T04:37:17;99553.59;;;11.47;46.40
70571;BME280;58135;50.948;-1.458;2022-12-31T04:38:18;99557.87;;;11.62;46.92
70571;BME280;58135;50.948;-1.458;2022-12-31T04:39:18;99556.49;;;11.88;46.62
70571;BME280;58135;50.948;-1.458;2022-12-31T04:40:19;99548.81;;;11.30;46.62
70571;BME280;58135;50.948;-1.458;2022-12-31T04:41:19;99560.89;;;10.65;47.00
70571;BME280;58135;50.948;-1.458;2022-12-31T04:42:19;99561.95;;;11.09;46.91
70571;BME280;58135;50.948;-1.458;2022-12-31T04:43:19;99553.02;;;11.73;46.01
70571;BME280;58135;50.948;-1.458;2022-12-31T04:44:20;99547.94;;;11.81;45.11
70571;BME280;58135;50.948;-1.458;2022-12-31T04:45:20;99552.03;;;11.80;45.83
70571;BME280;58135;50.948;-1.458;2022-12-31T04:46:23;99565.52;;;12.14;44.87
70571;BME280;58135;50.948;-1.458;2022-12-31T04:47:21;99559.82;;;11.96;45.42
70571;BME280;58135;50.948;-1.458;2022-12-31T04:48:21;99551.13;;;11.02;46.11
70571;BME280;58135;50.948;-1.458;2022-12-31T04:49:22;99542.92;;;11.62;45.50
70571;BME280;58135;50.948;-1.458;2022-12-31T04:50:23;99544.17;;;12.36;44.88
70571;BME280;58135;50.948;-1.458;2022-12-31T04:51:23;99539.60;;;12.28;44.94
70571;BME280;58135;50.948;-1.458;2022-12-31T04:52:22;99543.95;;;12.05;45.20
70571;BME280;58135;50.948;-1.458;2022-12-31T04:53:23;99532.35;;;12.25;44.80
70571;BME280;58135;50.948;-1.458;2022-12-31T04:54:23;99541.00;;;12.22;44.99
70571;BME280;58135;50.948;-1.458;2022-12-31T04:55:24;99547.52;;;11.71;44.94
70571;BME280;58135;50.948;-1.458;2022-12-31T04:56:25;99555.63;;;11.49;45.19
70571;BME280;58135;50.948;-1.458;2022-12-31T04:57:24;99551.91;;;11.67;45.64
70571;BME280;58135;50.948;-1.458;2022-12-31T04:58:24;99554.73;;;12.46;44.40
70571;BME280;58135;50.948;-1.458;2022-12-31T04:59:24;99547.97;;;11.67;45.00
70571;BME280;58135;50.948;-1.458;2022-12-31T05:00:24;99553.46;;;12.39;44.57
70571;BME280;58135;50.948;-1.458;2022-12-31T05:01:24;99560.51;;;12.40;44.62
70571;BME280;58135;50.948;-1.458;2022-12-31T05:02:24;99572.62;;;12.61;44.33
70571;BME280;58135;50.948;-1.458;2022-12-31T05:03:25;99561.82;;;11.77;44.80
70571;BME280;58135;50.948;-1.458;2022-12-31T05:04:25;99564.96;;;11.14;45.65
70571;BME280;58135;50.948;-1.458;2022-12-31T05:05:25;99573.91;;;11.48;45.99
70571;BME280;58135;50.948;-1.458;2022-12-31T05:06:25;99565.53;;;11.24;45.82
70571;BME280;58135;50.948;-1.458;2022-12-31T05:07:26;99565.08;;;11.45;45.37
70571;BME280;58135;50.948;-1.458;2022-12-31T05:08:27;99567.70;;;11.76;45.07
70571;BME280;58135;50.948;-1.458;2022-12-31T05:09:27;99568.11;;;12.10;44.30
70571;BME280;58135;50.948;-1.458;2022-12-31T05:10:28;99572.56;;;12.38;43.80
70571;BME280;58135;50.948;-1.458;2022-12-31T05:11:29;99565.14;;;11.77;44.59
70571;BME280;58135;50.948;-1.458;2022-12-31T05:12:29;99563.13;;;12.07;44.83
70571;BME280;58135;50.948;-1.458;2022-12-31T05:13:30;99566.59;;;11.33;45.25
70571;BME280;58135;50.948;-1.458;2022-12-31T05:14:29;99569.29;;;11.53;44.98
70571;BME280;58135;50.948;-1.458;2022-12-31T05:15:29;99574.35;;;12.25;44.18
70571;BME280;58135;50.948;-1.458;2022-12-31T05:16:29;99577.29;;;11.67;44.69
70571;BME280;58135;50.948;-1.458;2022-12-31T05:17:32;99581.41;;;11.64;44.91
70571;BME280;58135;50.948;-1.458;2022-12-31T05:18:31;99581.50;;;12.56;44.25
70571;BME280;58135;50.948;-1.458;2022-12-31T05:19:31;99583.19;;;11.65;44.69